Hauptseite
METAR-TAF:

METAR-TAF

Flughäfen :

Flughafen Derry

Derry, Nordirland

Breite: 55-03N, Länge: 007-09W, Höhe: 9 m

Beobachtung

Neuester Wetterbericht von vor 13 Stunden und 33 Minuten, um 16:20 UTC
Wind 15 kt aus Nord
Temperatur 14°C
Luftfeuchtigkeit 55%
Luftdruck 1017 hPa
Sichtweite 10 km oder mehr
Aufgelockert bewölkt in der Höhe von 3700 ft

METAR: EGAE 031620Z 36015KT 9999 SCT037 14/05 Q1017

Zeit: 06:53 (05:53 UTC)

Prognose

Neuester Wetterbericht von vor 15 Stunden und 55 Minuten, um 13:58 UTC
Gültige Prognose vom 03 um 15 UTC bis 03 um 17 UTC
Wind 17 kt aus Nord/Nordost, Böen bis zu 27 kt
Sichtweite 10 km oder mehr
Leicht bewölkt in der Höhe von 3500 ft

TAF: EGAE 031358Z 0315/0317 02017G27KT 9999 FEW035

Wetterbeobachtungen und Prognosen von mehr als 4000 Flughäfen (METAR und TAF Bericht).

Die verfügbaren Stationen werden durch gelbe und rote Markierungen auf der Karte dargestellt.

Führen Sie die Maus auf sie, um den Namen der Station zu sehen.

Darauf klicken, um die Beobachtung von Wetterbeobachtungen und Prognosen zu sehen.

Um die Karte zu ändern : klicken Sie auf den grünen Tasten mit einem schwarzen Kreuz Zum Vergrößern, auf den grünen Button mit einem Gedankenstrich zu verkleinern, oder auf die grünen Pfeile für benachbarte Karten.


METAR-TAF: